Time;durP1;ratioP1;P1;durP2;ratioP2;P2;SDS_P1;SDS_P2;PMS_P1;PMS_P2;Temp;Humidity;BMP_temperature;BMP_pressure;BME280_temperature;BME280_humidity;BME280_pressure;Samples;Min_cycle;Max_cycle;Signal;HPM_P1;HPM_P2
2022/01/18 00:01:24;;;;;;;42.35;19.45;;;1.00;99.90;;;;;;5082425;28;20240;-79
2022/01/18 00:03:50;;;;;;;45.63;18.80;;;0.90;99.90;;;;;;5082452;28;20033;-78
2022/01/18 00:06:16;;;;;;;39.92;18.45;;;1.00;99.90;;;;;;5083616;28;20073;-80
2022/01/18 00:08:42;;;;;;;40.20;19.33;;;1.00;99.90;;;;;;5048973;28;20021;-79
2022/01/18 00:11:08;;;;;;;47.65;19.10;;;0.90;99.90;;;;;;5064895;28;20025;-79
2022/01/18 00:19:06;;;;;;;48.35;19.10;;;0.90;99.90;;;;;;5082029;28;20203;-79
2022/01/18 00:21:48;;;;;;;47.72;19.30;;;0.90;99.90;;;;;;5066640;28;20020;-79
2022/01/18 00:24:13;;;;;;;42.03;18.15;;;0.90;99.90;;;;;;5082512;28;20056;-79
2022/01/18 00:26:39;;;;;;;47.47;19.83;;;0.90;99.90;;;;;;5082215;28;20207;-79
2022/01/18 00:29:09;;;;;;;47.80;19.65;;;0.90;99.90;;;;;;5081681;28;20095;-79
2022/01/18 00:31:44;;;;;;;47.15;19.95;;;0.80;99.90;;;;;;5081891;28;20024;-79
2022/01/18 00:34:19;;;;;;;39.92;18.15;;;0.80;99.90;;;;;;5082598;28;20016;-79
2022/01/18 00:37:01;;;;;;;41.85;19.35;;;0.80;99.90;;;;;;5085441;28;20025;-79
2022/01/18 00:39:26;;;;;;;;;;;0.90;99.90;;;;;;5087461;28;20410;-79
2022/01/18 00:41:53;;;;;;;41.85;17.45;;;0.80;99.90;;;;;;5087436;28;19904;-80
2022/01/18 00:44:19;;;;;;;42.78;17.85;;;0.80;99.90;;;;;;5085681;28;20027;-78
2022/01/18 00:46:45;;;;;;;47.47;20.45;;;0.80;99.90;;;;;;5086512;28;20290;-79
2022/01/18 00:49:12;;;;;;;42.35;19.00;;;0.70;99.90;;;;;;5069619;28;20035;-80
2022/01/18 00:51:40;;;;;;;45.33;18.52;;;0.70;99.90;;;;;;5085542;28;20050;-79
2022/01/18 00:54:08;;;;;;;39.53;18.15;;;0.70;99.90;;;;;;5084958;28;20355;-79
2022/01/18 00:56:39;;;;;;;44.45;18.48;;;0.70;99.90;;;;;;5085269;28;20069;-79
2022/01/18 00:59:04;;;;;;;43.50;19.35;;;0.70;99.90;;;;;;5087236;28;20019;-79
2022/01/18 01:01:31;;;;;;;39.17;17.52;;;0.60;99.90;;;;;;5085455;28;20024;-79
2022/01/18 01:04:02;;;;;;;35.20;17.88;;;0.60;99.90;;;;;;5086496;28;20031;-79
2022/01/18 01:06:29;;;;;;;38.58;17.73;;;0.70;99.90;;;;;;5085703;28;20223;-80
2022/01/18 01:08:55;;;;;;;42.42;17.00;;;0.70;99.90;;;;;;5085709;28;20181;-79
2022/01/18 01:11:21;;;;;;;43.45;18.63;;;0.60;99.90;;;;;;5085252;28;20219;-78
2022/01/18 01:13:49;;;;;;;32.38;17.08;;;0.70;99.90;;;;;;5086675;28;20050;-79
2022/01/18 01:16:42;;;;;;;40.80;17.25;;;0.70;99.90;;;;;;5085052;28;20307;-79
2022/01/18 01:19:27;;;;;;;41.30;17.90;;;0.60;99.90;;;;;;5085299;28;20017;-80
2022/01/18 01:44:05;;;;;;;40.95;17.00;;;0.50;99.90;;;;;;5084880;28;20050;-79
2022/01/18 01:46:32;;;;;;;41.00;16.88;;;0.50;99.90;;;;;;5084507;28;20025;-79
2022/01/18 01:49:00;;;;;;;36.90;17.10;;;0.50;99.90;;;;;;5084889;28;20028;-78
2022/01/18 01:51:30;;;;;;;40.45;16.83;;;0.50;99.90;;;;;;5086034;28;20203;-79
2022/01/18 01:53:59;;;;;;;41.67;17.05;;;0.40;99.90;;;;;;5086126;28;20025;-79
2022/01/18 01:56:25;;;;;;;34.65;15.23;;;0.40;99.90;;;;;;5083499;28;20070;-79
2022/01/18 01:58:51;;;;;;;37.38;17.45;;;0.50;99.90;;;;;;5085431;28;20062;-78
2022/01/18 02:01:17;;;;;;;43.22;17.25;;;0.50;99.90;;;;;;5084130;28;20331;-79
2022/01/18 02:03:42;;;;;;;39.25;17.80;;;0.50;99.90;;;;;;5084232;28;20241;-79
2022/01/18 02:06:08;;;;;;;42.60;18.10;;;0.50;99.90;;;;;;5084408;28;20028;-79
2022/01/18 02:08:34;;;;;;;38.88;17.77;;;0.40;99.90;;;;;;5085569;28;20089;-79
2022/01/18 02:11:00;;;;;;;40.15;18.35;;;0.30;99.90;;;;;;5067094;28;20036;-79
2022/01/18 02:13:25;;;;;;;37.42;18.15;;;0.30;99.90;;;;;;5085390;28;20032;-78
2022/01/18 02:16:15;;;;;;;37.58;17.20;;;0.30;99.90;;;;;;5085883;28;20024;-79
2022/01/18 02:24:13;;;;;;;37.25;16.63;;;0.40;99.90;;;;;;5095287;28;20021;-78
2022/01/18 02:26:39;;;;;;;41.90;18.02;;;0.40;99.90;;;;;;5092652;28;20083;-78
2022/01/18 02:29:06;;;;;;;41.25;19.90;;;0.30;99.90;;;;;;5087115;28;20056;-79
2022/01/18 02:31:32;;;;;;;37.85;17.95;;;0.30;99.90;;;;;;5066916;28;20211;-79
2022/01/18 02:34:04;;;;;;;41.83;17.98;;;0.20;99.90;;;;;;5085426;28;20032;-78
2022/01/18 02:36:31;;;;;;;41.13;17.17;;;0.20;99.90;;;;;;5083847;28;20201;-78
2022/01/18 02:38:56;;;;;;;37.67;16.70;;;0.20;99.90;;;;;;5067248;28;20027;-78
2022/01/18 02:41:29;;;;;;;36.65;17.77;;;0.20;99.90;;;;;;5084502;28;20063;-79
2022/01/18 02:43:57;;;;;;;40.90;17.25;;;0.20;99.90;;;;;;5083735;28;20223;-78
2022/01/18 02:46:23;;;;;;;32.17;16.08;;;0.20;99.90;;;;;;5083881;28;20027;-80
2022/01/18 02:48:49;;;;;;;37.50;16.80;;;0.20;99.90;;;;;;5067026;28;20043;-80
2022/01/18 02:51:15;;;;;;;42.75;18.23;;;0.30;99.90;;;;;;5083673;28;20032;-79
2022/01/18 02:54:03;;;;;;;41.10;17.73;;;0.30;99.90;;;;;;5084881;28;20039;-79
2022/01/18 02:56:53;;;;;;;41.50;17.95;;;0.30;99.90;;;;;;5068565;28;20024;-80
2022/01/18 02:59:32;;;;;;;42.13;17.30;;;0.30;99.90;;;;;;5083835;28;20066;-79
2022/01/18 03:04:47;;;;;;;34.63;16.35;;;0.30;99.90;;;;;;5083568;28;20074;-79
2022/01/18 03:07:13;;;;;;;37.17;16.80;;;0.30;99.90;;;;;;5066458;28;20024;-79
2022/01/18 03:09:39;;;;;;;37.05;16.88;;;0.30;99.90;;;;;;5065899;28;20024;-80
2022/01/18 03:12:07;;;;;;;42.50;17.88;;;0.30;99.90;;;;;;5083273;28;20039;-78
2022/01/18 03:14:34;;;;;;;32.63;15.30;;;0.30;99.90;;;;;;5084667;28;20024;-80
2022/01/18 03:17:00;;;;;;;39.47;16.88;;;0.40;99.90;;;;;;5084611;28;20046;-79
2022/01/18 03:19:26;;;;;;;37.20;17.92;;;0.40;99.90;;;;;;5083494;28;20017;-79
2022/01/18 03:21:55;;;;;;;36.95;16.70;;;0.40;99.90;;;;;;5083669;28;20031;-81
2022/01/18 03:29:45;;;;;;;37.50;16.58;;;0.50;99.90;;;;;;5083152;28;20020;-78
2022/01/18 03:32:11;;;;;;;40.40;17.30;;;0.60;99.90;;;;;;5082896;28;20028;-79
2022/01/18 03:34:36;;;;;;;44.53;18.10;;;0.70;99.90;;;;;;5084216;28;20020;-78
2022/01/18 03:37:03;;;;;;;40.38;17.23;;;0.80;99.90;;;;;;5084207;28;20027;-80
2022/01/18 03:39:28;;;;;;;37.72;17.08;;;0.70;99.90;;;;;;5084057;28;20017;-78
2022/01/18 03:41:59;;;;;;;36.25;17.08;;;0.70;99.90;;;;;;5084078;28;20261;-79
2022/01/18 03:44:26;;;;;;;34.72;15.65;;;0.80;99.90;;;;;;5050825;28;20058;-80
2022/01/18 03:46:53;;;;;;;40.33;16.60;;;0.80;99.90;;;;;;5083853;28;20096;-79
2022/01/18 03:49:23;;;;;;;33.90;16.08;;;0.90;99.90;;;;;;5083228;28;20027;-80
2022/01/18 03:51:49;;;;;;;38.38;17.38;;;0.90;99.90;;;;;;5050107;28;20031;-81
2022/01/18 03:54:22;;;;;;;31.60;15.60;;;0.90;99.90;;;;;;5082686;28;20034;-79
2022/01/18 03:56:47;;;;;;;34.78;16.83;;;1.00;99.90;;;;;;5082817;28;20046;-79
2022/01/18 03:59:13;;;;;;;36.08;16.02;;;1.00;99.90;;;;;;5084021;28;20036;-79
2022/01/18 04:01:39;;;;;;;38.67;17.52;;;1.00;99.90;;;;;;5082352;28;20024;-79
2022/01/18 04:04:04;;;;;;;35.20;16.00;;;1.00;99.90;;;;;;5082589;28;20029;-78
2022/01/18 04:06:30;;;;;;;36.92;15.95;;;1.10;99.90;;;;;;5082904;28;20316;-79
2022/01/18 04:08:56;;;;;;;38.60;16.55;;;1.00;99.90;;;;;;5083990;28;20026;-79
2022/01/18 04:11:22;;;;;;;36.13;16.13;;;1.00;99.90;;;;;;5082211;28;20032;-80
2022/01/18 04:13:47;;;;;;;39.13;16.75;;;1.00;99.90;;;;;;5082536;28;20012;-79
2022/01/18 04:16:14;;;;;;;39.80;16.95;;;0.90;99.90;;;;;;5083405;28;20028;-79
2022/01/18 04:19:20;;;;;;;33.05;15.73;;;1.00;99.90;;;;;;5066016;28;20238;-80
2022/01/18 04:26:57;;;;;;;38.40;17.15;;;0.90;99.90;;;;;;5082431;28;20017;-79
2022/01/18 04:29:25;;;;;;;37.72;17.13;;;0.90;99.90;;;;;;5082425;28;20230;-79
2022/01/18 04:31:50;;;;;;;32.13;17.27;;;0.90;99.90;;;;;;5082382;28;20268;-79
2022/01/18 04:34:16;;;;;;;38.83;17.40;;;0.90;99.90;;;;;;5082298;28;20024;-78
2022/01/18 04:36:45;;;;;;;37.88;18.20;;;0.90;99.90;;;;;;5082739;28;20032;-79
2022/01/18 04:39:10;;;;;;;35.88;17.05;;;0.90;99.90;;;;;;5083320;28;20016;-78
2022/01/18 04:41:36;;;;;;;35.08;17.50;;;0.90;99.90;;;;;;5065360;28;20039;-79
2022/01/18 04:44:16;;;;;;;34.53;17.10;;;1.00;99.90;;;;;;5083375;28;20024;-79
2022/01/18 04:49:27;;;;;;;31.15;15.32;;;0.90;99.90;;;;;;5082870;28;20339;-78
2022/01/18 04:51:53;;;;;;;33.67;15.88;;;0.70;99.90;;;;;;5065559;28;20087;-78
2022/01/18 04:54:19;;;;;;;37.15;17.08;;;0.70;99.90;;;;;;5083268;28;20027;-79
2022/01/18 04:59:30;;;;;;;36.65;16.63;;;0.70;99.90;;;;;;5066739;28;20044;-79
2022/01/18 05:01:56;;;;;;;35.60;17.05;;;0.70;99.90;;;;;;5083077;28;20027;-80
2022/01/18 05:04:22;;;;;;;36.45;17.52;;;0.60;99.90;;;;;;5064881;28;20307;-80
2022/01/18 05:06:47;;;;;;;37.60;16.42;;;0.50;99.90;;;;;;5083349;28;20096;-81
2022/01/18 05:09:13;;;;;;;39.17;16.58;;;0.60;99.90;;;;;;5082878;28;20020;-79
2022/01/18 05:14:30;;;;;;;42.67;17.38;;;0.70;99.90;;;;;;5080853;28;20025;-80
2022/01/18 05:17:04;;;;;;;36.80;16.33;;;0.70;99.90;;;;;;5094215;28;20021;-80
2022/01/18 05:19:42;;;;;;;35.28;15.73;;;0.70;99.90;;;;;;5093669;28;20024;-80
2022/01/18 05:24:54;;;;;;;39.90;16.98;;;0.70;99.90;;;;;;5085906;28;20048;-81
2022/01/18 05:27:20;;;;;;;36.33;16.33;;;0.70;99.90;;;;;;5069309;28;20024;-80
2022/01/18 05:29:45;;;;;;;41.75;19.33;;;0.80;99.90;;;;;;5086252;28;20036;-80
2022/01/18 05:32:11;;;;;;;40.33;16.83;;;0.80;99.90;;;;;;5087739;28;20027;-80
2022/01/18 05:34:37;;;;;;;40.45;17.95;;;0.80;99.90;;;;;;5071053;28;20059;-79
2022/01/18 05:37:02;;;;;;;36.25;17.80;;;0.90;99.90;;;;;;5088553;28;20052;-81
2022/01/18 05:39:28;;;;;;;44.00;18.13;;;0.80;99.90;;;;;;5086190;28;20066;-81
2022/01/18 05:41:54;;;;;;;38.28;17.35;;;0.80;99.90;;;;;;5085933;28;20061;-79
2022/01/18 05:44:22;;;;;;;33.47;16.77;;;0.70;99.90;;;;;;5084956;28;20036;-80
2022/01/18 05:46:49;;;;;;;36.13;17.27;;;0.70;99.90;;;;;;5084710;28;20230;-80
2022/01/18 05:49:14;;;;;;;41.85;20.23;;;0.70;99.90;;;;;;5084974;28;20036;-80
2022/01/18 05:51:41;;;;;;;37.22;18.30;;;0.70;99.90;;;;;;5068301;28;20028;-80
2022/01/18 05:54:07;;;;;;;44.35;18.05;;;0.70;99.90;;;;;;5086176;28;20016;-80
2022/01/18 05:56:34;;;;;;;40.03;17.42;;;0.80;99.90;;;;;;5086089;28;20082;-79
2022/01/18 05:59:03;;;;;;;33.05;15.93;;;0.80;99.90;;;;;;5082865;28;20265;-81
2022/01/18 06:01:33;;;;;;;33.53;15.80;;;0.90;99.90;;;;;;5052126;28;20085;-79
2022/01/18 06:04:14;;;;;;;35.42;17.08;;;1.00;99.90;;;;;;5084761;28;20295;-80
2022/01/18 06:06:54;;;;;;;40.92;17.98;;;1.10;99.90;;;;;;5084044;28;20065;-80
2022/01/18 06:09:22;;;;;;;35.17;16.00;;;1.00;99.90;;;;;;5085447;28;20043;-80
2022/01/18 06:11:48;;;;;;;38.17;18.10;;;1.00;99.90;;;;;;5067874;28;20020;-79
2022/01/18 06:14:14;;;;;;;35.90;18.45;;;0.90;99.90;;;;;;5083248;28;20312;-80
2022/01/18 06:16:40;;;;;;;36.95;17.20;;;0.90;99.90;;;;;;5083514;28;20075;-81
2022/01/18 06:19:06;;;;;;;31.33;16.25;;;1.00;99.90;;;;;;5067598;28;20021;-80
2022/01/18 06:21:31;;;;;;;35.95;17.30;;;1.00;99.90;;;;;;5084991;28;20036;-80
2022/01/18 06:23:57;;;;;;;35.20;16.90;;;1.00;99.90;;;;;;5066423;28;20031;-79
2022/01/18 06:26:23;;;;;;;32.33;15.77;;;1.00;99.90;;;;;;5081931;28;20020;-80
2022/01/18 06:28:48;;;;;;;38.72;16.80;;;1.10;99.90;;;;;;5083815;28;20137;-80
2022/01/18 06:31:14;;;;;;;32.42;16.30;;;1.20;99.90;;;;;;5084054;28;20020;-79
2022/01/18 06:33:40;;;;;;;35.25;16.60;;;1.20;99.90;;;;;;5064403;28;20417;-79
2022/01/18 06:36:05;;;;;;;31.60;15.85;;;1.10;99.90;;;;;;5079661;28;20254;-80
2022/01/18 06:38:32;;;;;;;31.48;15.38;;;1.00;99.90;;;;;;5080301;28;20032;-77
2022/01/18 06:40:57;;;;;;;33.63;17.08;;;1.10;99.90;;;;;;5080336;28;20323;-79
2022/01/18 06:43:23;;;;;;;42.53;18.00;;;1.20;99.90;;;;;;5079418;28;20045;-79
2022/01/18 06:45:48;;;;;;;36.53;16.38;;;1.10;99.90;;;;;;5062710;28;20119;-79
2022/01/18 06:48:15;;;;;;;43.90;17.05;;;1.10;99.90;;;;;;5080938;28;20020;-79
2022/01/18 06:50:41;;;;;;;38.67;15.70;;;1.20;99.90;;;;;;5079511;28;20319;-78
2022/01/18 06:53:06;;;;;;;33.97;16.52;;;1.20;99.90;;;;;;5082743;28;20070;-79
2022/01/18 06:55:32;;;;;;;35.53;16.75;;;1.10;99.90;;;;;;5066759;28;20070;-79
2022/01/18 06:57:58;;;;;;;39.17;17.10;;;1.10;99.90;;;;;;5083732;28;20077;-78
2022/01/18 07:00:24;;;;;;;40.75;17.10;;;1.10;99.90;;;;;;5081647;28;20097;-78
2022/01/18 07:02:49;;;;;;;37.97;16.98;;;1.20;99.90;;;;;;5083389;28;20060;-78
2022/01/18 07:05:15;;;;;;;36.75;17.15;;;1.30;99.90;;;;;;5084099;28;20039;-79
2022/01/18 07:07:42;;;;;;;38.75;17.65;;;1.20;99.90;;;;;;5082716;28;20021;-78
2022/01/18 07:10:09;;;;;;;40.20;17.63;;;1.10;99.90;;;;;;5084193;28;20223;-79
2022/01/18 07:12:35;;;;;;;36.83;17.85;;;1.20;99.90;;;;;;5066898;28;20306;-79
2022/01/18 07:15:03;;;;;;;34.17;17.58;;;1.30;99.90;;;;;;5083060;28;20036;-79
2022/01/18 07:17:29;;;;;;;44.38;17.83;;;1.30;99.90;;;;;;5083113;28;20070;-79
2022/01/18 07:19:55;;;;;;;41.05;17.67;;;1.30;99.90;;;;;;5084154;28;20021;-79
2022/01/18 07:22:20;;;;;;;37.25;17.27;;;1.30;99.90;;;;;;5082538;28;20047;-80
2022/01/18 07:24:47;;;;;;;37.42;17.85;;;1.20;99.90;;;;;;5083214;28;20083;-79
2022/01/18 07:27:15;;;;;;;46.42;19.08;;;1.20;99.90;;;;;;5083111;28;20048;-80
2022/01/18 07:29:42;;;;;;;44.22;18.63;;;1.20;99.90;;;;;;5066084;28;20020;-80
2022/01/18 07:32:09;;;;;;;46.33;18.95;;;1.20;99.90;;;;;;5049951;28;20192;-79
2022/01/18 07:34:40;;;;;;;46.70;19.30;;;1.20;99.90;;;;;;5084297;28;20044;-82
2022/01/18 07:37:06;;;;;;;41.97;19.10;;;1.10;99.90;;;;;;5067015;28;20295;-81
2022/01/18 07:39:32;;;;;;;44.20;20.13;;;1.10;99.90;;;;;;5082494;28;20051;-79
2022/01/18 07:41:58;;;;;;;36.17;18.30;;;1.10;99.90;;;;;;5066764;28;20028;-81
2022/01/18 07:44:24;;;;;;;39.40;18.23;;;1.10;99.90;;;;;;5083298;28;20254;-82
2022/01/18 07:46:49;;;;;;;45.30;19.00;;;1.20;99.90;;;;;;5083456;28;20070;-81
2022/01/18 07:49:15;;;;;;;49.45;20.02;;;1.40;99.90;;;;;;5082580;28;20047;-83
2022/01/18 07:51:41;;;;;;;45.13;19.40;;;1.50;99.90;;;;;;5082885;28;20032;-81
2022/01/18 07:54:08;;;;;;;51.50;20.90;;;1.60;99.90;;;;;;5082661;28;20315;-80
2022/01/18 07:56:34;;;;;;;44.85;20.90;;;1.80;99.90;;;;;;5081448;28;20028;-79
2022/01/18 07:58:59;;;;;;;46.85;20.02;;;1.80;99.90;;;;;;5082952;28;20073;-82
2022/01/18 08:01:25;;;;;;;37.58;19.25;;;1.90;99.90;;;;;;5060897;28;20052;-80
2022/01/18 08:03:51;;;;;;;45.58;19.25;;;1.90;99.90;;;;;;5080277;28;20025;-78
2022/01/18 08:06:16;;;;;;;45.70;19.40;;;2.00;99.90;;;;;;5081778;28;20024;-75
2022/01/18 08:08:42;;;;;;;49.25;18.98;;;2.00;99.90;;;;;;5083272;28;20052;-75
2022/01/18 08:11:08;;;;;;;45.15;18.60;;;2.00;99.90;;;;;;5086120;28;20024;-76
2022/01/18 08:13:39;;;;;;;37.92;17.27;;;2.10;99.90;;;;;;5084033;28;20048;-78
2022/01/18 08:16:35;;;;;;;48.45;19.45;;;2.20;99.90;;;;;;5085452;28;20056;-76
2022/01/18 08:18:55;;;;;;;38.28;18.33;;;2.30;99.90;;;;;;5067612;28;20054;-80
2022/01/18 08:21:21;;;;;;;39.90;18.45;;;2.40;99.90;;;;;;5079938;28;20062;-79
2022/01/18 08:23:47;;;;;;;38.47;17.63;;;2.40;99.90;;;;;;5086527;28;20028;-80
2022/01/18 08:26:13;;;;;;;37.13;18.88;;;2.40;99.90;;;;;;5103300;28;20106;-77
2022/01/18 08:28:39;;;;;;;44.22;18.52;;;2.50;99.90;;;;;;5101509;28;20051;-77
2022/01/18 08:31:05;;;;;;;37.83;17.58;;;2.50;99.90;;;;;;5080805;28;20040;-74
2022/01/18 08:33:32;;;;;;;41.78;17.15;;;2.60;99.90;;;;;;5080075;28;20020;-82
2022/01/18 08:35:59;;;;;;;36.63;18.08;;;2.50;99.90;;;;;;5081472;28;20032;-79
2022/01/18 08:38:29;;;;;;;34.33;16.42;;;2.50;99.90;;;;;;5081034;28;20361;-79
2022/01/18 08:40:54;;;;;;;34.90;17.08;;;2.50;99.90;;;;;;5079690;28;20338;-80
2022/01/18 08:43:21;;;;;;;30.50;15.77;;;2.50;99.90;;;;;;5079655;28;20029;-81
2022/01/18 08:45:47;;;;;;;34.53;16.42;;;2.70;99.90;;;;;;5080854;28;20092;-80
2022/01/18 08:48:13;;;;;;;39.53;16.48;;;2.90;99.90;;;;;;5064707;28;20063;-78
2022/01/18 08:50:40;;;;;;;41.17;16.98;;;3.10;99.90;;;;;;5082169;28;20096;-80
2022/01/18 08:53:07;;;;;;;35.35;16.52;;;3.20;99.90;;;;;;5082258;28;20051;-78
2022/01/18 08:55:34;;;;;;;34.22;15.63;;;3.20;99.90;;;;;;5083447;28;20021;-81
2022/01/18 08:58:01;;;;;;;28.65;15.43;;;3.20;99.90;;;;;;5066655;28;20027;-81
2022/01/18 09:00:27;;;;;;;35.40;16.00;;;3.30;99.90;;;;;;5052364;28;20035;-77
2022/01/18 09:02:53;;;;;;;42.40;17.48;;;3.40;99.90;;;;;;5085333;28;20039;-86
2022/01/18 09:05:22;;;;;;;39.38;17.67;;;3.40;99.90;;;;;;5083840;28;20088;-85
2022/01/18 09:07:48;;;;;;;39.35;17.08;;;3.50;99.90;;;;;;5084906;28;20020;-83
2022/01/18 09:10:14;;;;;;;37.40;17.38;;;3.60;99.90;;;;;;5068483;28;20312;-85
2022/01/18 09:12:40;;;;;;;38.03;16.55;;;3.70;99.90;;;;;;5086890;28;20020;-83
2022/01/18 09:15:08;;;;;;;36.25;15.85;;;3.70;99.90;;;;;;5080181;28;20322;-83
2022/01/18 09:17:34;;;;;;;31.73;14.77;;;3.80;99.90;;;;;;5086046;28;20029;-84
2022/01/18 09:20:05;;;;;;;31.25;16.15;;;4.00;99.90;;;;;;5072993;28;20023;-83
2022/01/18 09:22:34;;;;;;;40.37;16.23;;;4.00;99.90;;;;;;5070259;28;20059;-82
2022/01/18 09:25:07;;;;;;;33.22;15.52;;;4.00;99.90;;;;;;5085572;28;20063;-83
2022/01/18 09:27:33;;;;;;;34.67;15.30;;;4.10;99.90;;;;;;5085458;28;20020;-81
2022/01/18 09:29:59;;;;;;;31.05;15.85;;;4.20;99.90;;;;;;5068763;28;20016;-84
2022/01/18 09:32:25;;;;;;;40.20;16.27;;;4.20;99.90;;;;;;5086260;28;20357;-84
2022/01/18 09:34:52;;;;;;;30.05;14.98;;;4.20;99.90;;;;;;5087887;28;20036;-83
2022/01/18 09:37:20;;;;;;;37.90;16.20;;;4.20;99.90;;;;;;5069512;28;20029;-86
2022/01/18 09:39:46;;;;;;;40.08;16.60;;;4.20;99.90;;;;;;5085676;28;20019;-80
2022/01/18 09:42:12;;;;;;;43.05;16.48;;;4.20;99.90;;;;;;5086189;28;20235;-81
2022/01/18 09:44:45;;;;;;;33.50;15.57;;;4.30;99.90;;;;;;5084760;28;20031;-80
2022/01/18 09:47:11;;;;;;;39.10;16.02;;;4.30;99.90;;;;;;5086005;28;20032;-81
2022/01/18 09:49:40;;;;;;;42.65;16.52;;;4.40;99.90;;;;;;5086356;28;20021;-85
2022/01/18 09:52:07;;;;;;;49.75;16.92;;;4.50;99.90;;;;;;5086962;28;20032;-83
2022/01/18 09:54:33;;;;;;;44.22;15.60;;;4.50;99.90;;;;;;5048520;28;20075;-80
2022/01/18 09:57:02;;;;;;;43.40;16.52;;;4.40;99.90;;;;;;5072865;28;20020;-88
2022/01/18 09:59:27;;;;;;;44.33;16.48;;;4.40;99.90;;;;;;5071613;28;20016;-81
2022/01/18 10:01:53;;;;;;;52.33;17.65;;;4.50;99.90;;;;;;5070394;28;20016;-82
2022/01/18 10:04:22;;;;;;;41.08;17.95;;;4.60;99.90;;;;;;5067553;28;20020;-81
2022/01/18 10:06:55;;;;;;;45.78;17.02;;;4.60;99.90;;;;;;5051123;28;20257;-84
2022/01/18 10:09:22;;;;;;;46.38;17.15;;;4.70;99.90;;;;;;5067639;28;20035;-82
2022/01/18 10:12:15;;;;;;;40.55;17.33;;;4.70;99.90;;;;;;5068691;28;20021;-80
2022/01/18 10:14:52;;;;;;;44.20;16.75;;;4.70;99.90;;;;;;5068003;28;20270;-84
2022/01/18 10:17:39;;;;;;;51.75;17.95;;;4.80;99.90;;;;;;5051537;28;20028;-85
2022/01/18 10:20:08;;;;;;;48.03;17.40;;;4.80;99.90;;;;;;5037491;28;20036;-86
2022/01/18 10:22:48;;;;;;;52.05;17.73;;;4.80;99.90;;;;;;5067829;28;20062;-83
2022/01/18 10:25:28;;;;;;;52.72;18.45;;;4.80;99.90;;;;;;5061763;28;20048;-80
2022/01/18 10:27:57;;;;;;;46.88;17.92;;;4.80;99.90;;;;;;5067501;28;20021;-85
2022/01/18 10:30:43;;;;;;;48.38;17.65;;;5.00;99.90;;;;;;5059050;28;20222;-82
2022/01/18 10:33:16;;;;;;;44.05;17.80;;;4.90;99.90;;;;;;5087857;28;20027;-88
2022/01/18 10:36:10;;;;;;;48.83;17.85;;;4.90;99.90;;;;;;5086969;28;20052;-84
2022/01/18 10:38:41;;;;;;;48.25;17.35;;;4.90;99.90;;;;;;5074771;28;20016;-80
2022/01/18 10:41:28;;;;;;;38.50;16.50;;;5.00;99.90;;;;;;5069469;28;20073;-83
2022/01/18 10:44:14;;;;;;;45.50;18.25;;;5.00;99.90;;;;;;5073876;28;20032;-83
2022/01/18 10:47:00;;;;;;;37.25;16.52;;;5.10;99.90;;;;;;5082461;28;20012;-79
2022/01/18 10:49:39;;;;;;;39.03;16.55;;;5.20;99.90;;;;;;5046937;28;20025;-88
2022/01/18 10:52:10;;;;;;;39.78;17.02;;;5.20;99.90;;;;;;5047461;28;20053;-80
2022/01/18 10:54:45;;;;;;;44.45;17.80;;;5.30;99.90;;;;;;5047010;28;20099;-80
2022/01/18 10:57:16;;;;;;;41.70;15.65;;;5.30;99.90;;;;;;5060197;28;20027;-83
2022/01/18 10:59:42;;;;;;;40.00;17.93;;;5.50;99.90;;;;;;5067361;28;20012;-83
2022/01/18 11:02:13;;;;;;;37.83;16.65;;;5.80;99.90;;;;;;5067666;28;20204;-89
2022/01/18 11:04:42;;;;;;;43.63;18.88;;;5.70;99.90;;;;;;5049707;28;20028;-80
2022/01/18 11:07:09;;;;;;;42.20;17.10;;;5.80;99.90;;;;;;5052607;28;20028;-80
2022/01/18 11:09:35;;;;;;;35.33;15.25;;;6.00;99.90;;;;;;5073936;28;20031;-81
2022/01/18 11:12:02;;;;;;;39.60;17.02;;;6.10;99.90;;;;;;5073871;28;20028;-83
2022/01/18 11:14:29;;;;;;;36.35;16.23;;;6.20;99.90;;;;;;5074141;28;20023;-82
2022/01/18 11:16:58;;;;;;;41.92;17.08;;;6.10;99.90;;;;;;5072537;28;20024;-82
2022/01/18 11:19:31;;;;;;;36.85;16.65;;;6.10;99.90;;;;;;5071384;28;20043;-82
2022/01/18 11:22:00;;;;;;;34.08;15.93;;;6.20;99.90;;;;;;5070749;28;20013;-86
2022/01/18 11:24:28;;;;;;;36.30;16.30;;;6.30;99.90;;;;;;5053033;28;20056;-83
2022/01/18 11:26:59;;;;;;;36.22;16.85;;;6.60;99.90;;;;;;5085686;28;20028;-86
2022/01/18 11:29:26;;;;;;;33.47;16.50;;;6.70;99.90;;;;;;5086978;28;20327;-84
2022/01/18 11:31:56;;;;;;;43.25;17.52;;;6.80;99.90;;;;;;5067435;28;20320;-82
2022/01/18 11:34:32;;;;;;;54.97;17.17;;;7.00;99.90;;;;;;5083704;28;20291;-84
2022/01/18 11:37:24;;;;;;;36.42;15.55;;;7.10;99.90;;;;;;5085603;28;20300;-88
2022/01/18 11:40:07;;;;;;;46.83;17.38;;;7.20;99.90;;;;;;5084435;28;20025;-87
2022/01/18 11:42:41;;;;;;;;;;;7.00;99.90;;;;;;5080993;28;20114;-86
2022/01/18 11:45:29;;;;;;;43.90;17.67;;;6.90;99.90;;;;;;5105348;28;19908;-85
2022/01/18 11:48:19;;;;;;;32.45;16.33;;;6.80;99.90;;;;;;5073730;28;20028;-84
2022/01/18 11:50:50;;;;;;;39.25;17.02;;;6.90;99.90;;;;;;5068263;28;20066;-78
2022/01/18 11:53:25;;;;;;;35.20;16.73;;;7.00;99.90;;;;;;5083427;28;20032;-78
2022/01/18 11:55:54;;;;;;;38.72;17.13;;;7.20;99.90;;;;;;5066984;28;20091;-77
2022/01/18 11:58:21;;;;;;;32.85;15.02;;;7.50;99.90;;;;;;5066428;28;20024;-79
2022/01/18 12:00:57;;;;;;;32.55;14.90;;;7.70;99.90;;;;;;5081564;28;20060;-79
2022/01/18 12:03:27;;;;;;;41.55;16.13;;;7.90;99.90;;;;;;5080360;28;20020;-78
2022/01/18 12:05:57;;;;;;;35.38;15.68;;;7.90;99.90;;;;;;5082028;28;20020;-79
2022/01/18 12:08:44;;;;;;;37.22;17.17;;;7.90;99.90;;;;;;5083694;28;20066;-79
2022/01/18 12:11:33;;;;;;;35.55;16.17;;;7.70;99.90;;;;;;5067545;28;20242;-77
2022/01/18 12:14:00;;;;;;;39.20;15.05;;;7.60;99.90;;;;;;5068965;28;20051;-83
2022/01/18 12:16:30;;;;;;;33.67;14.90;;;7.60;99.90;;;;;;5065377;28;20039;-85
2022/01/18 12:19:10;;;;;;;35.65;16.08;;;7.70;99.90;;;;;;5066071;28;20299;-86
2022/01/18 12:21:44;;;;;;;39.63;16.92;;;7.70;99.90;;;;;;5081984;28;20028;-85
2022/01/18 12:24:17;;;;;;;35.60;15.77;;;7.80;99.90;;;;;;5064900;28;20025;-83
2022/01/18 12:26:47;;;;;;;37.75;16.77;;;7.80;99.90;;;;;;5083545;28;20017;-79
2022/01/18 12:29:46;;;;;;;36.15;15.93;;;7.70;99.90;;;;;;5079693;28;20024;-79
2022/01/18 12:32:20;;;;;;;35.08;16.45;;;7.50;99.90;;;;;;5063020;28;20035;-80
2022/01/18 12:34:49;;;;;;;36.78;16.23;;;7.40;99.90;;;;;;5065624;28;20354;-81
2022/01/18 12:37:34;;;;;;;37.00;16.17;;;7.20;99.90;;;;;;5066896;28;20029;-83
2022/01/18 12:40:05;;;;;;;36.85;15.80;;;7.20;99.90;;;;;;5085363;28;20024;-82
2022/01/18 12:45:33;;;;;;;37.40;15.30;;;7.10;99.90;;;;;;5072234;28;20261;-78
2022/01/18 12:48:09;;;;;;;40.90;16.13;;;7.10;99.90;;;;;;5074363;28;20028;-82
2022/01/18 12:50:51;;;;;;;35.38;16.30;;;7.10;99.90;;;;;;5057097;28;20199;-81
2022/01/18 12:53:22;;;;;;;35.47;16.15;;;7.10;99.90;;;;;;5087946;28;20043;-83
2022/01/18 12:55:54;;;;;;;31.88;15.43;;;7.20;99.90;;;;;;5070107;28;20104;-81
2022/01/18 12:58:38;;;;;;;34.70;16.38;;;7.20;99.90;;;;;;5070189;28;20017;-80
2022/01/18 13:01:07;;;;;;;42.15;16.70;;;7.30;99.90;;;;;;5068549;28;20020;-84
2022/01/18 13:03:36;;;;;;;42.97;17.30;;;7.30;99.90;;;;;;5086196;28;20028;-81
2022/01/18 13:06:06;;;;;;;44.08;16.52;;;7.30;99.90;;;;;;5068049;28;20318;-81
2022/01/18 13:08:55;;;;;;;38.80;16.60;;;7.30;99.90;;;;;;5085942;28;20058;-82
2022/01/18 13:11:23;;;;;;;42.85;16.88;;;7.30;99.90;;;;;;5084766;28;20099;-82
2022/01/18 13:13:59;;;;;;;37.60;16.48;;;7.40;99.90;;;;;;5085455;28;20102;-81
2022/01/18 13:25:04;;;;;;;51.40;17.85;;;8.00;99.90;;;;;;5077823;28;20111;-82
2022/01/18 13:27:38;;;;;;;31.80;13.65;;;8.10;99.90;;;;;;5085904;28;20027;-80
2022/01/18 13:30:17;;;;;;;38.92;15.32;;;8.30;99.90;;;;;;5068967;28;20107;-81
2022/01/18 13:32:44;;;;;;;38.80;14.07;;;8.30;99.90;;;;;;5054188;28;20231;-81
2022/01/18 13:35:10;;;;;;;37.75;13.63;;;8.50;99.90;;;;;;5081754;28;20027;-76
2022/01/18 13:37:37;;;;;;;44.50;15.93;;;8.70;99.90;;;;;;5088102;28;20024;-82
2022/01/18 13:40:15;;;;;;;51.17;14.85;;;8.80;99.90;;;;;;5106617;28;20019;-83
2022/01/18 13:42:45;;;;;;;51.30;15.73;;;9.00;99.90;;;;;;5071736;28;20203;-78
2022/01/18 13:45:28;;;;;;;43.10;14.32;;;9.00;99.90;;;;;;5071726;28;20028;-82
2022/01/18 13:48:06;;;;;;;38.67;14.00;;;9.10;99.90;;;;;;5088468;28;20016;-79
2022/01/18 13:50:53;;;;;;;29.17;12.27;;;9.20;99.90;;;;;;5089148;28;20303;-83
2022/01/18 13:53:31;;;;;;;28.25;12.18;;;9.10;99.90;;;;;;5072136;28;20020;-82
2022/01/18 13:56:18;;;;;;;34.05;13.52;;;9.10;99.90;;;;;;5088730;28;20067;-84
2022/01/18 13:58:48;;;;;;;33.60;12.68;;;8.90;99.90;;;;;;5094700;28;20020;-78
2022/01/18 14:01:17;;;;;;;28.10;13.63;;;8.80;99.90;;;;;;5079430;28;20055;-77